createdAt,value
2022-10-11T00:07:26.460Z,41.30
2022-10-11T00:22:27.918Z,41.30
2022-10-11T00:37:29.371Z,41.30
2022-10-11T00:52:30.833Z,41.20
2022-10-11T01:07:32.277Z,41.20
2022-10-11T01:22:33.739Z,41.20
2022-10-11T01:37:35.193Z,41.20
2022-10-11T01:52:36.659Z,41.20
2022-10-11T02:07:38.170Z,41.10
2022-10-11T02:22:39.622Z,41.10
2022-10-11T02:37:41.090Z,41.10
2022-10-11T02:52:42.567Z,41.00
2022-10-11T03:07:44.039Z,41.00
2022-10-11T03:22:45.492Z,41.00
2022-10-11T03:37:46.964Z,40.90
2022-10-11T03:52:48.427Z,40.80
2022-10-11T04:07:49.895Z,40.80
2022-10-11T04:22:51.359Z,40.90
2022-10-11T04:37:52.843Z,40.80
2022-10-11T04:52:54.291Z,40.80
2022-10-11T05:07:55.746Z,41.90
2022-10-11T05:22:57.207Z,40.80
2022-10-11T05:37:58.667Z,40.70
2022-10-11T05:53:00.121Z,40.70
2022-10-11T06:08:01.575Z,40.70
2022-10-11T06:23:03.036Z,40.60
2022-10-11T06:38:04.526Z,40.20
2022-10-11T06:53:05.985Z,40.60
2022-10-11T07:08:07.461Z,40.80
2022-10-11T07:23:08.917Z,40.70
2022-10-11T07:38:10.359Z,40.40
2022-10-11T07:53:11.818Z,39.60
2022-10-11T08:08:13.284Z,38.70
2022-10-11T08:23:14.741Z,38.60
2022-10-11T08:38:16.221Z,38.60
2022-10-11T08:53:17.680Z,38.80
2022-10-11T09:08:19.183Z,38.80
2022-10-11T09:23:20.643Z,39.00
2022-10-11T09:38:22.102Z,38.80
2022-10-11T09:53:23.544Z,38.80
2022-10-11T10:08:24.997Z,38.70
2022-10-11T10:23:26.463Z,38.60
2022-10-11T10:38:28.007Z,39.00
2022-10-11T10:53:29.474Z,38.80
2022-10-11T11:08:30.921Z,39.50
2022-10-11T11:23:32.423Z,38.50
2022-10-11T11:38:33.895Z,37.20
2022-10-11T11:53:35.376Z,35.20
2022-10-11T12:08:36.837Z,34.50
2022-10-11T12:23:38.286Z,33.30
2022-10-11T12:38:39.782Z,32.20
2022-10-11T12:53:41.262Z,31.80
2022-10-11T13:08:42.786Z,31.30
2022-10-11T13:23:44.253Z,31.90
2022-10-11T13:38:45.712Z,31.80
2022-10-11T13:53:47.186Z,32.00
2022-10-11T14:08:48.662Z,32.40
2022-10-11T14:23:50.123Z,32.90
2022-10-11T14:38:51.583Z,33.20
2022-10-11T14:53:53.039Z,33.40
2022-10-11T15:08:54.489Z,33.80
2022-10-11T15:23:55.966Z,34.30
2022-10-11T15:38:57.425Z,34.50
2022-10-11T15:53:58.883Z,34.80
2022-10-11T16:09:00.354Z,35.20
2022-10-11T16:24:01.819Z,35.30
2022-10-11T16:39:03.270Z,35.50
2022-10-11T16:54:04.733Z,35.30
2022-10-11T17:09:06.198Z,35.50
2022-10-11T17:24:07.661Z,35.60
2022-10-11T17:39:09.126Z,35.90
2022-10-11T17:54:10.562Z,36.10
2022-10-11T18:09:12.028Z,36.50
2022-10-11T18:24:13.479Z,36.80
2022-10-11T18:39:14.937Z,37.70
2022-10-11T18:54:20.070Z,38.30
2022-10-11T19:09:22.675Z,38.70
2022-10-11T19:24:24.133Z,38.80
2022-10-11T19:39:25.611Z,39.10
2022-10-11T19:54:28.189Z,39.20
2022-10-11T20:09:30.855Z,39.40
2022-10-11T20:24:33.357Z,39.50
2022-10-11T20:39:35.401Z,39.60
2022-10-11T20:54:36.850Z,39.20
2022-10-11T21:09:38.294Z,39.00
2022-10-11T21:24:39.740Z,38.80
2022-10-11T21:39:41.190Z,38.80
2022-10-11T21:54:42.645Z,38.60
2022-10-11T22:09:44.081Z,39.30
2022-10-11T22:24:45.593Z,39.50
2022-10-11T22:39:47.029Z,40.40
2022-10-11T22:54:48.496Z,41.20
2022-10-11T23:09:49.984Z,41.60
2022-10-11T23:24:51.422Z,42.00
2022-10-11T23:39:52.871Z,42.30
2022-10-11T23:54:54.327Z,42.40
